Braidwood, Illinois
Current Conditions -  °F | °C
As of 5:55 AM on Monday 24 Nov 2014 (Local Time) from KC09 Reporting Station
Overcast Overcast  
Wind Chill: 38°   Ceiling: 400
Heat Index: 44°   Visibility: 7mi
Dew Point: 44°   Wind: 12mph
Humidity: 100%   Direction: 270°W
Pressure: 29.09"   Gusts: NA
Location:  41.27°N, 88.21°W
Report Text: KC09 241155Z AUTO 27010KT 7SM OVC004 07/07 A2909 RMK AO2 T00670067 10095 20067
Loading
Personal Weather Stations






























Interactive Weather Map New forecast layout! Learn more

10-Day Weather Forecast

Advertisements
Track Severe Weather on mobile